Time;durP1;ratioP1;P1;durP2;ratioP2;P2;SDS_P1;SDS_P2;PMS_P1;PMS_P2;Temp;Humidity;BMP_temperature;BMP_pressure;BME280_temperature;BME280_humidity;BME280_pressure;Samples;Min_cycle;Max_cycle;Signal;HPM_P1;HPM_P2
2023/04/16 00:00:57;;;;;;;38.45;22.27;;;9.00;99.90;;;;;;5094767;28;20043;-70
2023/04/16 00:03:23;;;;;;;39.65;22.85;;;9.00;99.90;;;;;;5112767;28;20100;-70
2023/04/16 00:05:49;;;;;;;41.72;22.58;;;9.00;99.90;;;;;;5097663;28;20040;-69
2023/04/16 00:08:14;;;;;;;38.90;22.33;;;9.00;99.90;;;;;;5079365;28;20039;-70
2023/04/16 00:10:40;;;;;;;36.28;20.65;;;8.90;99.90;;;;;;5095610;28;20504;-70
2023/04/16 00:13:06;;;;;;;39.70;22.02;;;9.00;99.90;;;;;;5109826;27;20411;-70
2023/04/16 00:15:31;;;;;;;37.75;20.90;;;9.00;99.90;;;;;;5109496;28;20043;-70
2023/04/16 00:17:57;;;;;;;39.28;21.73;;;9.00;99.90;;;;;;5121185;27;20079;-70
2023/04/16 00:20:23;;;;;;;40.35;21.90;;;8.90;99.90;;;;;;5121184;27;20069;-70
2023/04/16 00:22:48;;;;;;;40.15;22.00;;;8.90;99.90;;;;;;5129195;27;20035;-70
2023/04/16 00:25:14;;;;;;;41.17;22.58;;;8.90;99.90;;;;;;5112830;28;20122;-70
2023/04/16 00:27:39;;;;;;;45.05;20.88;;;8.90;99.90;;;;;;5109191;28;20502;-70
2023/04/16 00:30:06;;;;;;;35.05;22.00;;;8.90;99.90;;;;;;5108909;28;20051;-70
2023/04/16 00:32:32;;;;;;;38.30;21.60;;;8.90;99.90;;;;;;5092110;28;20036;-70
2023/04/16 00:34:57;;;;;;;35.13;22.30;;;8.90;99.90;;;;;;5092226;28;20032;-69
2023/04/16 00:37:23;;;;;;;38.83;20.00;;;8.90;99.90;;;;;;5104617;28;20058;-70
2023/04/16 00:39:49;;;;;;;40.25;22.45;;;8.90;99.90;;;;;;5080182;28;20027;-70
2023/04/16 00:42:15;;;;;;;37.55;20.33;;;8.90;99.90;;;;;;5111659;28;20050;-70
2023/04/16 00:44:41;;;;;;;40.28;22.35;;;8.90;99.90;;;;;;5112280;28;20043;-69
2023/04/16 00:47:07;;;;;;;39.35;21.90;;;8.90;99.90;;;;;;5075936;28;20043;-70
2023/04/16 00:49:33;;;;;;;39.00;22.45;;;8.90;99.90;;;;;;5092081;28;20391;-70
2023/04/16 00:52:01;;;;;;;37.75;22.27;;;8.90;99.90;;;;;;5091482;28;20067;-70
2023/04/16 00:54:27;;;;;;;39.03;22.17;;;8.80;99.90;;;;;;5074985;28;20492;-70
2023/04/16 00:56:52;;;;;;;44.30;23.25;;;8.90;99.90;;;;;;5108801;28;20101;-70
2023/04/16 00:59:19;;;;;;;47.92;24.77;;;8.80;99.90;;;;;;5092105;28;20040;-70
2023/04/16 01:01:44;;;;;;;44.97;25.00;;;8.80;99.90;;;;;;5099471;28;20067;-70
2023/04/16 01:04:10;;;;;;;41.30;23.33;;;8.80;99.90;;;;;;5114755;28;20491;-70
2023/04/16 01:06:36;;;;;;;43.55;23.70;;;8.80;99.90;;;;;;5094305;28;20033;-70
2023/04/16 01:09:01;;;;;;;42.15;24.63;;;8.80;99.90;;;;;;5108256;28;20473;-70
2023/04/16 01:11:27;;;;;;;44.60;23.98;;;8.70;99.90;;;;;;5079442;28;20526;-70
2023/04/16 01:13:52;;;;;;;47.50;25.48;;;8.70;99.90;;;;;;5129399;28;20042;-69
2023/04/16 01:16:18;;;;;;;46.58;24.20;;;8.70;99.90;;;;;;5110416;28;20119;-70
2023/04/16 01:18:43;;;;;;;41.13;23.30;;;8.70;99.90;;;;;;5108817;28;20466;-69
2023/04/16 01:21:09;;;;;;;48.38;24.88;;;8.70;99.90;;;;;;5092663;28;20210;-69
2023/04/16 01:23:35;;;;;;;47.67;25.42;;;8.70;99.90;;;;;;5108942;28;20139;-70
2023/04/16 01:26:01;;;;;;;55.40;25.88;;;8.70;99.90;;;;;;5108284;28;20028;-70
2023/04/16 01:28:27;;;;;;;43.13;24.50;;;8.60;99.90;;;;;;5091379;28;20032;-70
2023/04/16 01:30:52;;;;;;;49.60;25.23;;;8.70;99.90;;;;;;5074427;28;20070;-70
2023/04/16 01:33:20;;;;;;;49.03;25.20;;;8.70;99.90;;;;;;5093726;28;20071;-70
2023/04/16 01:35:46;;;;;;;51.70;27.02;;;8.60;99.90;;;;;;5114630;28;20080;-70
2023/04/16 01:38:11;;;;;;;45.78;25.90;;;8.60;99.90;;;;;;5091750;28;20040;-70
2023/04/16 01:40:37;;;;;;;51.40;27.65;;;8.60;99.90;;;;;;5095126;28;20131;-69
2023/04/16 01:43:03;;;;;;;49.22;25.70;;;8.60;99.90;;;;;;5112077;28;20089;-69
2023/04/16 01:45:31;;;;;;;46.92;25.83;;;8.60;99.90;;;;;;5111909;28;20040;-70
2023/04/16 01:47:56;;;;;;;42.40;24.10;;;8.60;99.90;;;;;;5113084;28;20040;-70
2023/04/16 01:50:22;;;;;;;46.55;26.80;;;8.60;99.90;;;;;;5114033;28;20502;-70
2023/04/16 01:52:48;;;;;;;45.33;26.92;;;8.60;99.90;;;;;;5097293;28;20032;-70
2023/04/16 01:55:14;;;;;;;43.00;25.20;;;8.60;99.90;;;;;;5115203;27;20100;-71
2023/04/16 01:57:40;;;;;;;46.60;26.45;;;8.50;99.90;;;;;;5096972;28;20479;-70
2023/04/16 02:00:07;;;;;;;48.78;28.25;;;8.50;99.90;;;;;;5114013;28;20043;-70
2023/04/16 02:02:34;;;;;;;44.70;24.88;;;8.50;99.90;;;;;;5098334;28;20051;-70
2023/04/16 02:05:00;;;;;;;45.40;27.90;;;8.50;99.90;;;;;;5098005;28;20554;-70
2023/04/16 02:07:26;;;;;;;45.22;27.58;;;8.50;99.90;;;;;;5113968;28;20075;-69
2023/04/16 02:09:52;;;;;;;44.58;26.15;;;8.50;99.90;;;;;;5114839;28;20483;-69
2023/04/16 02:12:17;;;;;;;44.28;26.52;;;8.60;99.90;;;;;;5112023;28;20088;-70
2023/04/16 02:14:43;;;;;;;46.38;27.65;;;8.50;99.90;;;;;;5093142;28;20501;-70
2023/04/16 02:17:09;;;;;;;44.58;27.15;;;8.50;99.90;;;;;;5099201;28;20497;-70
2023/04/16 02:19:35;;;;;;;46.95;26.52;;;8.50;99.90;;;;;;5096668;28;20052;-70
2023/04/16 02:22:00;;;;;;;43.80;26.80;;;8.50;99.90;;;;;;5094194;28;20044;-70
2023/04/16 02:24:26;;;;;;;47.88;26.52;;;8.60;99.90;;;;;;5094227;28;20028;-70
2023/04/16 02:26:52;;;;;;;49.13;27.63;;;8.50;99.90;;;;;;5102690;27;20449;-70
2023/04/16 02:29:18;;;;;;;47.05;27.00;;;8.60;99.90;;;;;;5105322;28;20028;-70
2023/04/16 02:31:44;;;;;;;43.53;28.05;;;8.50;99.90;;;;;;5113858;28;20039;-69
2023/04/16 02:34:09;;;;;;;40.47;25.75;;;8.50;99.90;;;;;;5107704;28;20059;-70
2023/04/16 02:36:35;;;;;;;43.47;25.60;;;8.50;99.90;;;;;;5093405;28;20047;-70
2023/04/16 02:39:01;;;;;;;40.55;25.88;;;8.40;99.90;;;;;;5110253;28;20043;-70
2023/04/16 02:41:26;;;;;;;39.28;25.27;;;8.40;99.90;;;;;;5093362;28;20032;-70
2023/04/16 02:43:52;;;;;;;41.30;25.10;;;8.40;99.90;;;;;;5094234;28;20036;-70
2023/04/16 02:46:17;;;;;;;39.53;24.63;;;8.40;99.90;;;;;;5131229;27;20123;-70
2023/04/16 02:48:43;;;;;;;42.70;24.83;;;8.40;99.90;;;;;;5097492;28;20028;-69
2023/04/16 02:51:09;;;;;;;40.92;24.85;;;8.40;99.90;;;;;;5110046;28;20535;-70
2023/04/16 02:53:34;;;;;;;44.97;25.45;;;8.40;99.90;;;;;;5110530;28;20056;-70
2023/04/16 02:56:00;;;;;;;46.42;26.38;;;8.50;99.90;;;;;;5084326;28;20043;-70
2023/04/16 02:58:26;;;;;;;43.00;25.95;;;8.40;99.90;;;;;;5112128;28;20066;-70
2023/04/16 03:00:52;;;;;;;48.00;25.83;;;8.40;99.90;;;;;;5113069;28;20093;-70
2023/04/16 03:03:19;;;;;;;40.38;24.92;;;8.40;99.90;;;;;;5109258;28;20032;-70
2023/04/16 03:05:44;;;;;;;43.88;25.63;;;8.40;99.90;;;;;;5076829;28;20042;-70
2023/04/16 03:08:10;;;;;;;48.13;25.45;;;8.40;99.90;;;;;;5093780;28;20394;-70
2023/04/16 03:10:36;;;;;;;42.22;25.13;;;8.50;99.90;;;;;;5093508;28;20048;-70
2023/04/16 03:13:02;;;;;;;45.53;25.77;;;8.50;99.90;;;;;;5092406;28;20126;-70
2023/04/16 03:15:29;;;;;;;43.13;24.63;;;8.50;99.90;;;;;;5093344;28;20086;-70
2023/04/16 03:17:55;;;;;;;48.15;25.98;;;8.50;99.90;;;;;;5093216;28;20046;-70
2023/04/16 03:20:20;;;;;;;46.80;24.63;;;8.50;99.90;;;;;;5076131;28;20052;-70
2023/04/16 03:22:46;;;;;;;51.10;27.30;;;8.50;99.90;;;;;;5093195;28;20060;-70
2023/04/16 03:25:12;;;;;;;46.40;26.65;;;8.50;99.90;;;;;;5075924;28;20036;-70
2023/04/16 03:27:38;;;;;;;46.83;26.88;;;8.60;99.90;;;;;;5076074;28;20039;-70
2023/04/16 03:30:06;;;;;;;47.83;25.92;;;8.60;99.90;;;;;;5109111;27;20040;-70
2023/04/16 03:32:31;;;;;;;42.28;24.95;;;8.50;99.90;;;;;;5106094;28;20035;-70
2023/04/16 03:34:57;;;;;;;50.97;27.40;;;8.60;99.90;;;;;;5095490;28;20030;-70
2023/04/16 03:37:23;;;;;;;51.53;25.77;;;8.60;99.90;;;;;;5092843;28;20028;-70
2023/04/16 03:39:48;;;;;;;54.97;28.85;;;8.60;99.90;;;;;;5092840;28;20040;-70
2023/04/16 03:42:14;;;;;;;49.35;27.02;;;8.60;99.90;;;;;;5104155;28;20563;-70
2023/04/16 03:44:39;;;;;;;45.63;26.27;;;8.60;99.90;;;;;;5093342;28;20035;-70
2023/04/16 03:47:05;;;;;;;53.30;25.50;;;8.60;99.90;;;;;;5111656;28;20046;-70
2023/04/16 03:49:30;;;;;;;54.95;28.75;;;8.60;99.90;;;;;;5130103;27;20479;-69
2023/04/16 03:51:56;;;;;;;46.33;25.85;;;8.60;99.90;;;;;;5095391;28;20039;-70
2023/04/16 03:54:22;;;;;;;42.17;25.00;;;8.60;99.90;;;;;;5103727;28;20102;-70
2023/04/16 03:56:47;;;;;;;53.28;26.95;;;8.60;99.90;;;;;;5092431;28;20482;-70
2023/04/16 03:59:13;;;;;;;46.25;26.27;;;8.60;99.90;;;;;;5109068;28;20103;-70
2023/04/16 04:01:38;;;;;;;44.88;23.55;;;8.60;99.90;;;;;;5095643;28;20496;-70
2023/04/16 04:04:04;;;;;;;44.55;25.98;;;8.70;99.90;;;;;;5089667;28;20032;-70
2023/04/16 04:06:29;;;;;;;44.70;25.00;;;8.60;99.90;;;;;;5092308;28;20046;-70
2023/04/16 04:08:55;;;;;;;46.08;25.02;;;8.70;99.90;;;;;;5092346;28;20089;-70
2023/04/16 04:11:21;;;;;;;46.83;26.60;;;8.70;99.90;;;;;;5096254;28;20043;-70
2023/04/16 04:13:46;;;;;;;51.38;24.50;;;8.70;99.90;;;;;;5087150;28;20479;-70
2023/04/16 04:16:12;;;;;;;46.92;24.88;;;8.70;99.90;;;;;;5128356;27;20046;-70
2023/04/16 04:18:37;;;;;;;48.60;25.80;;;8.60;99.90;;;;;;5129696;27;20047;-70
2023/04/16 04:21:07;;;;;;;48.40;25.15;;;8.60;99.90;;;;;;5094631;28;20036;-70
2023/04/16 04:23:34;;;;;;;46.80;25.80;;;8.60;99.90;;;;;;5089923;28;20035;-70
2023/04/16 04:26:02;;;;;;;43.53;25.27;;;8.60;99.90;;;;;;5092119;28;20032;-70
2023/04/16 04:28:28;;;;;;;50.60;25.10;;;8.60;99.90;;;;;;5092328;28;20370;-70
2023/04/16 04:30:54;;;;;;;48.80;24.85;;;8.60;99.90;;;;;;5091871;28;20511;-70
2023/04/16 04:33:20;;;;;;;46.78;29.80;;;8.60;99.90;;;;;;5108916;28;20040;-70
2023/04/16 04:35:45;;;;;;;46.08;24.58;;;8.60;99.90;;;;;;5092503;28;20071;-70
2023/04/16 04:38:12;;;;;;;46.65;24.38;;;8.60;99.90;;;;;;5092142;28;20032;-70
2023/04/16 04:40:37;;;;;;;45.33;23.88;;;8.60;99.90;;;;;;5075130;28;20044;-70
2023/04/16 04:43:03;;;;;;;45.65;23.15;;;8.60;99.90;;;;;;5091504;28;20036;-70
2023/04/16 04:45:29;;;;;;;43.47;22.58;;;8.50;99.90;;;;;;5091929;28;20365;-70
2023/04/16 04:47:54;;;;;;;45.72;23.40;;;8.60;99.90;;;;;;5092030;28;20040;-70
2023/04/16 04:50:20;;;;;;;47.92;24.35;;;8.50;99.90;;;;;;5075119;28;20043;-70
2023/04/16 04:52:46;;;;;;;47.08;21.83;;;8.50;99.90;;;;;;5091502;28;20090;-70
2023/04/16 04:55:14;;;;;;;46.17;23.15;;;8.50;99.90;;;;;;5091669;28;20052;-70
2023/04/16 04:57:40;;;;;;;45.35;22.23;;;8.50;99.90;;;;;;5103929;28;20048;-70
2023/04/16 05:00:06;;;;;;;44.92;22.88;;;8.50;99.90;;;;;;5091773;28;20511;-70
2023/04/16 05:02:32;;;;;;;43.75;23.58;;;8.50;99.90;;;;;;5077748;28;20032;-70
2023/04/16 05:04:58;;;;;;;41.25;22.92;;;8.50;99.90;;;;;;5108600;28;20043;-70
2023/04/16 05:07:23;;;;;;;44.75;23.20;;;8.50;99.90;;;;;;5109932;28;20071;-70
2023/04/16 05:09:49;;;;;;;42.90;22.52;;;8.40;99.90;;;;;;5095649;28;20506;-70
2023/04/16 05:12:15;;;;;;;48.80;24.35;;;8.40;99.90;;;;;;5090031;28;20042;-70
2023/04/16 05:14:41;;;;;;;45.72;24.48;;;8.40;99.90;;;;;;5115927;28;20044;-70
2023/04/16 05:17:06;;;;;;;50.80;24.73;;;8.50;99.90;;;;;;5098249;28;20046;-70
2023/04/16 05:19:32;;;;;;;53.83;24.20;;;8.40;99.90;;;;;;5098898;28;20048;-70
2023/04/16 05:21:58;;;;;;;40.50;23.30;;;8.50;99.90;;;;;;5112825;28;20419;-70
2023/04/16 05:24:24;;;;;;;62.60;26.95;;;8.40;99.90;;;;;;5098943;28;20093;-70
2023/04/16 05:26:50;;;;;;;56.35;25.10;;;8.40;99.90;;;;;;5098737;28;20074;-70
2023/04/16 05:29:15;;;;;;;57.33;24.25;;;8.40;99.90;;;;;;5115819;28;20045;-70
2023/04/16 05:31:41;;;;;;;47.38;23.73;;;8.50;99.90;;;;;;5107568;28;20040;-70
2023/04/16 05:34:06;;;;;;;51.85;23.35;;;8.50;99.90;;;;;;5103511;28;20496;-70
2023/04/16 05:36:32;;;;;;;48.88;24.10;;;8.50;99.90;;;;;;5108766;28;20535;-70
2023/04/16 05:38:58;;;;;;;46.42;25.08;;;8.60;99.90;;;;;;5114375;28;20070;-70
2023/04/16 05:41:23;;;;;;;45.25;24.77;;;8.50;99.90;;;;;;5111736;28;20095;-70
2023/04/16 05:43:49;;;;;;;50.38;23.40;;;8.50;99.90;;;;;;5102485;28;20035;-70
2023/04/16 05:46:14;;;;;;;47.80;23.73;;;8.50;99.90;;;;;;5102860;28;20039;-70
2023/04/16 05:48:40;;;;;;;52.67;23.60;;;8.60;99.90;;;;;;5106071;28;20040;-70
2023/04/16 05:51:05;;;;;;;48.92;25.00;;;8.60;99.90;;;;;;5080113;28;20044;-70
2023/04/16 05:53:31;;;;;;;43.45;22.08;;;8.60;99.90;;;;;;5103801;28;20506;-70
2023/04/16 05:55:56;;;;;;;44.53;24.60;;;8.60;99.90;;;;;;5114785;28;20097;-70
2023/04/16 05:58:22;;;;;;;39.95;22.35;;;8.50;99.90;;;;;;5115210;28;20054;-70
2023/04/16 06:00:48;;;;;;;41.30;23.15;;;8.50;99.90;;;;;;5093488;28;20055;-70
2023/04/16 06:03:13;;;;;;;42.13;22.63;;;8.60;99.90;;;;;;5102517;28;20035;-70
2023/04/16 06:05:39;;;;;;;42.03;21.50;;;8.60;99.90;;;;;;5098283;27;20032;-74
2023/04/16 06:08:04;;;;;;;39.80;23.20;;;8.60;99.90;;;;;;5096859;28;20246;-70
2023/04/16 06:10:30;;;;;;;42.38;23.15;;;8.60;99.90;;;;;;5114500;28;20502;-70
2023/04/16 06:12:55;;;;;;;44.28;24.75;;;8.70;99.90;;;;;;5097351;28;20625;-70
2023/04/16 06:15:21;;;;;;;47.85;23.83;;;8.70;99.90;;;;;;5115266;28;20039;-70
2023/04/16 06:17:47;;;;;;;43.47;22.85;;;8.70;99.90;;;;;;5111895;28;20564;-70
2023/04/16 06:20:13;;;;;;;42.45;23.02;;;8.60;99.90;;;;;;5098557;28;20094;-70
2023/04/16 06:22:38;;;;;;;44.75;22.77;;;8.60;99.90;;;;;;5076862;28;20036;-70
2023/04/16 06:25:04;;;;;;;44.92;23.90;;;8.60;99.90;;;;;;5093892;28;20085;-70
2023/04/16 06:27:30;;;;;;;49.05;25.63;;;8.60;99.90;;;;;;5093802;28;20036;-70
2023/04/16 06:29:56;;;;;;;46.35;24.23;;;8.70;99.90;;;;;;5094367;28;20036;-70
2023/04/16 06:32:21;;;;;;;43.80;23.08;;;8.70;99.90;;;;;;5076842;28;20492;-70
2023/04/16 06:34:47;;;;;;;42.92;22.85;;;8.60;99.90;;;;;;5110579;28;20461;-70
2023/04/16 06:37:12;;;;;;;43.45;23.60;;;8.70;99.90;;;;;;5086132;28;20407;-70
2023/04/16 06:39:38;;;;;;;43.13;23.80;;;8.60;99.90;;;;;;5093277;28;20036;-70
2023/04/16 06:42:04;;;;;;;39.80;22.52;;;8.70;99.90;;;;;;5096300;28;20031;-71
2023/04/16 06:44:29;;;;;;;36.28;20.25;;;8.70;99.90;;;;;;5103495;28;20027;-74
2023/04/16 06:46:55;;;;;;;40.00;21.08;;;8.70;99.90;;;;;;5084690;28;20124;-70
2023/04/16 06:49:20;;;;;;;41.10;21.63;;;8.70;99.90;;;;;;5078227;28;20032;-70
2023/04/16 06:51:46;;;;;;;38.88;21.60;;;8.70;99.90;;;;;;5077831;28;20027;-70
2023/04/16 06:54:12;;;;;;;38.13;22.20;;;8.80;99.90;;;;;;5087967;28;20081;-70
2023/04/16 06:56:37;;;;;;;36.50;21.85;;;8.80;99.90;;;;;;5124442;27;20407;-70
2023/04/16 06:59:03;;;;;;;38.88;21.48;;;8.80;99.90;;;;;;5099879;28;20031;-70
2023/04/16 07:01:30;;;;;;;34.53;20.77;;;8.70;99.90;;;;;;5116397;27;20104;-70
2023/04/16 07:03:56;;;;;;;46.10;21.95;;;8.80;99.90;;;;;;5099017;27;20036;-70
2023/04/16 07:06:22;;;;;;;37.65;21.58;;;8.80;99.90;;;;;;5080516;28;20583;-70
2023/04/16 07:08:47;;;;;;;43.67;22.60;;;8.70;99.90;;;;;;5100226;28;20114;-70
2023/04/16 07:11:13;;;;;;;38.63;21.77;;;8.80;99.90;;;;;;5103148;28;20040;-70
2023/04/16 07:13:39;;;;;;;36.92;19.92;;;8.80;99.90;;;;;;5111325;27;20103;-70
2023/04/16 07:16:04;;;;;;;35.13;21.38;;;8.80;99.90;;;;;;5110462;27;20488;-70
2023/04/16 07:18:30;;;;;;;39.95;20.90;;;8.90;99.90;;;;;;5105181;27;20050;-70
2023/04/16 07:20:56;;;;;;;39.33;20.10;;;8.90;99.90;;;;;;5083741;28;20044;-70
2023/04/16 07:23:22;;;;;;;36.78;21.80;;;8.90;99.90;;;;;;5102390;28;20074;-70
2023/04/16 07:25:47;;;;;;;35.92;20.83;;;9.00;99.90;;;;;;5104040;28;20067;-70
2023/04/16 07:28:15;;;;;;;35.05;21.02;;;9.00;99.90;;;;;;5104998;28;20563;-70
2023/04/16 07:30:41;;;;;;;38.67;20.85;;;8.90;99.90;;;;;;5092929;28;20043;-71
2023/04/16 07:33:07;;;;;;;38.47;20.65;;;9.00;99.90;;;;;;5109138;28;20462;-70
2023/04/16 07:35:33;;;;;;;38.92;21.00;;;9.00;99.90;;;;;;5100471;28;20071;-70
2023/04/16 07:37:58;;;;;;;44.25;22.30;;;9.10;99.90;;;;;;5100489;28;20046;-70
2023/04/16 07:40:24;;;;;;;40.05;20.98;;;9.10;99.90;;;;;;5108562;27;20051;-70
2023/04/16 07:42:50;;;;;;;40.65;19.95;;;9.10;99.90;;;;;;5093941;28;20039;-70
2023/04/16 07:45:17;;;;;;;40.15;21.15;;;9.10;99.90;;;;;;5101289;28;20043;-70
2023/04/16 07:47:42;;;;;;;37.15;20.75;;;9.20;99.90;;;;;;5078243;28;20029;-74
2023/04/16 07:50:08;;;;;;;45.63;21.10;;;9.30;99.90;;;;;;5114184;27;20035;-69
2023/04/16 07:52:34;;;;;;;36.42;20.63;;;9.30;99.90;;;;;;5077584;28;20043;-69
2023/04/16 07:54:59;;;;;;;41.45;20.65;;;9.40;99.90;;;;;;5092259;28;20056;-69
2023/04/16 07:57:25;;;;;;;35.38;19.65;;;9.40;99.90;;;;;;5091924;28;20487;-69
2023/04/16 07:59:50;;;;;;;35.88;19.83;;;9.40;99.90;;;;;;5098003;28;20069;-70
2023/04/16 08:02:16;;;;;;;41.85;20.77;;;9.50;99.90;;;;;;5092371;28;20051;-69
2023/04/16 08:04:42;;;;;;;41.75;20.05;;;9.50;99.90;;;;;;5092277;28;20032;-70
2023/04/16 08:07:08;;;;;;;40.08;19.88;;;9.50;99.90;;;;;;5092340;28;20032;-69
2023/04/16 08:09:35;;;;;;;38.40;18.98;;;9.60;99.90;;;;;;5092255;28;20082;-69
2023/04/16 08:12:01;;;;;;;36.22;17.65;;;9.60;99.90;;;;;;5092141;28;20543;-69
2023/04/16 08:14:27;;;;;;;39.97;19.25;;;9.60;99.90;;;;;;5092195;28;20040;-69
2023/04/16 08:16:52;;;;;;;41.47;19.20;;;9.70;99.90;;;;;;5099613;28;20122;-69
2023/04/16 08:19:18;;;;;;;42.40;19.48;;;9.80;99.90;;;;;;5112711;28;20039;-69
2023/04/16 08:21:44;;;;;;;40.63;20.80;;;9.80;99.90;;;;;;5112457;28;20779;-69
2023/04/16 08:24:10;;;;;;;36.00;18.90;;;9.80;99.90;;;;;;5112398;28;20124;-69
2023/04/16 08:26:36;;;;;;;36.08;19.77;;;9.90;99.90;;;;;;5111162;28;20032;-70
2023/04/16 08:29:01;;;;;;;40.72;19.48;;;9.90;99.90;;;;;;5129513;27;20497;-70
2023/04/16 08:31:27;;;;;;;37.45;17.95;;;10.00;99.90;;;;;;5112632;28;20076;-69
2023/04/16 08:33:53;;;;;;;44.83;20.83;;;10.10;99.90;;;;;;5121975;27;20031;-69
2023/04/16 08:36:19;;;;;;;37.47;18.60;;;10.20;99.90;;;;;;5095225;28;20040;-69
2023/04/16 08:38:45;;;;;;;42.95;20.95;;;10.20;99.90;;;;;;5112616;28;20063;-69
2023/04/16 08:41:12;;;;;;;42.75;19.45;;;10.30;99.90;;;;;;5112229;28;20055;-70
2023/04/16 08:43:43;;;;;;;44.00;20.35;;;10.40;99.90;;;;;;5098660;28;20040;-69
2023/04/16 08:46:10;;;;;;;42.10;19.13;;;10.40;99.90;;;;;;5099718;28;20036;-69
2023/04/16 08:48:36;;;;;;;35.58;18.80;;;10.50;99.90;;;;;;5116456;28;20069;-70
2023/04/16 08:51:02;;;;;;;43.00;18.75;;;10.60;99.90;;;;;;5090751;28;20040;-71
2023/04/16 08:53:50;;;;;;;40.42;19.08;;;10.60;99.90;;;;;;5111972;28;20078;-70
2023/04/16 08:56:20;;;;;;;35.35;18.40;;;10.70;99.90;;;;;;5097978;28;20047;-69
2023/04/16 08:58:47;;;;;;;35.58;18.27;;;10.80;99.90;;;;;;5099569;28;20411;-69
2023/04/16 09:01:14;;;;;;;30.65;17.45;;;10.90;99.90;;;;;;5116090;28;20043;-69
2023/04/16 09:03:40;;;;;;;36.30;18.88;;;11.00;99.90;;;;;;5099206;28;20120;-70
2023/04/16 09:06:06;;;;;;;33.63;17.50;;;11.10;99.90;;;;;;5116013;28;20040;-69
2023/04/16 09:08:34;;;;;;;32.38;17.33;;;11.20;99.90;;;;;;5116112;28;20040;-69
2023/04/16 09:11:00;;;;;;;30.20;16.65;;;11.30;99.90;;;;;;5108784;28;20050;-70
2023/04/16 09:13:26;;;;;;;30.38;16.88;;;11.40;99.90;;;;;;5116212;28;20432;-70
2023/04/16 09:15:56;;;;;;;28.40;18.05;;;11.50;99.90;;;;;;5115899;28;20042;-69
2023/04/16 09:18:22;;;;;;;30.45;17.77;;;11.60;99.90;;;;;;5115964;28;20039;-69
2023/04/16 09:20:48;;;;;;;32.05;17.45;;;11.60;99.90;;;;;;5099089;28;20403;-69
2023/04/16 09:23:14;;;;;;;34.88;16.98;;;11.60;99.90;;;;;;5106650;28;20036;-69
2023/04/16 09:25:39;;;;;;;27.60;17.27;;;11.60;99.90;;;;;;5130373;27;20039;-70
2023/04/16 09:28:05;;;;;;;29.75;16.55;;;11.60;99.90;;;;;;5115723;28;20044;-70
2023/04/16 09:30:32;;;;;;;28.27;16.05;;;11.60;99.90;;;;;;5115624;28;20393;-70
2023/04/16 09:33:21;;;;;;;28.55;16.35;;;11.70;99.90;;;;;;5098672;28;20118;-70
2023/04/16 09:35:55;;;;;;;27.60;16.60;;;11.70;99.90;;;;;;5115571;28;20039;-70
2023/04/16 09:38:21;;;;;;;24.88;14.85;;;11.80;99.90;;;;;;5115611;28;20044;-70
2023/04/16 09:40:47;;;;;;;27.58;16.10;;;11.90;99.90;;;;;;5107837;28;20050;-70
2023/04/16 09:43:17;;;;;;;24.23;15.27;;;12.00;99.90;;;;;;5115463;28;20093;-70
2023/04/16 09:45:53;;;;;;;25.35;15.45;;;12.00;99.90;;;;;;5115326;28;20039;-70
2023/04/16 09:48:32;;;;;;;26.05;15.63;;;12.10;99.90;;;;;;5098627;28;20065;-70
2023/04/16 09:50:59;;;;;;;23.83;14.48;;;12.20;99.90;;;;;;5098627;28;20062;-70
2023/04/16 09:53:29;;;;;;;27.13;15.13;;;12.20;99.90;;;;;;5098043;28;20112;-70
2023/04/16 09:55:58;;;;;;;25.58;14.88;;;12.40;99.90;;;;;;5095975;28;20043;-70
2023/04/16 09:58:24;;;;;;;23.67;14.85;;;12.40;99.90;;;;;;5084712;28;20488;-70
2023/04/16 10:01:17;;;;;;;25.23;15.35;;;12.50;99.90;;;;;;5094913;28;20411;-70
2023/04/16 10:03:42;;;;;;;;;;;12.50;99.90;;;;;;5076618;28;20113;-70
2023/04/16 10:06:13;;;;;;;25.25;15.10;;;12.60;99.90;;;;;;5094602;28;19916;-70
2023/04/16 10:08:43;;;;;;;23.52;14.70;;;12.60;99.90;;;;;;5077808;28;20040;-70
2023/04/16 10:11:09;;;;;;;25.40;15.05;;;12.60;99.90;;;;;;5094356;28;20122;-70
2023/04/16 10:13:35;;;;;;;26.92;15.07;;;12.70;99.90;;;;;;5112392;27;20039;-70
2023/04/16 10:16:02;;;;;;;21.95;14.40;;;12.70;99.90;;;;;;5107138;28;20044;-70
2023/04/16 10:18:28;;;;;;;25.70;14.13;;;12.80;99.90;;;;;;5097832;28;20163;-70
2023/04/16 10:20:54;;;;;;;23.30;14.77;;;12.90;99.90;;;;;;5113667;28;20122;-70
2023/04/16 10:23:21;;;;;;;23.65;14.38;;;12.90;99.90;;;;;;5097820;28;20043;-71
2023/04/16 10:25:48;;;;;;;22.83;14.52;;;13.10;99.90;;;;;;5102815;28;20112;-70
2023/04/16 10:28:15;;;;;;;20.25;13.73;;;13.10;99.90;;;;;;5083366;28;20043;-70
2023/04/16 10:30:47;;;;;;;21.40;14.10;;;13.20;99.90;;;;;;5092979;28;20039;-70
2023/04/16 10:33:13;;;;;;;25.35;13.32;;;13.20;99.90;;;;;;5119901;27;20047;-71
2023/04/16 10:35:39;;;;;;;20.73;13.90;;;13.20;99.90;;;;;;5092833;28;20047;-71
2023/04/16 10:38:25;;;;;;;26.02;14.32;;;13.30;99.90;;;;;;5114507;28;20051;-70
2023/04/16 10:40:58;;;;;;;23.52;13.43;;;13.30;99.90;;;;;;5110826;28;20036;-70
2023/04/16 10:43:24;;;;;;;23.20;14.40;;;13.30;99.90;;;;;;5077674;28;20504;-71
2023/04/16 10:45:50;;;;;;;19.27;14.45;;;13.40;99.90;;;;;;5096274;28;20376;-70
2023/04/16 10:48:18;;;;;;;22.23;14.18;;;13.50;99.90;;;;;;5099084;28;20040;-71
2023/04/16 10:50:56;;;;;;;21.80;14.20;;;13.50;99.90;;;;;;5076986;28;20032;-70
2023/04/16 10:53:26;;;;;;;23.23;14.07;;;13.60;99.90;;;;;;5086986;28;20066;-70
2023/04/16 10:56:11;;;;;;;23.58;14.70;;;13.70;99.90;;;;;;5114052;28;20051;-70
2023/04/16 10:58:37;;;;;;;21.75;13.13;;;13.80;99.90;;;;;;5092773;28;20047;-71
2023/04/16 11:01:12;;;;;;;22.48;14.65;;;13.80;99.90;;;;;;5080675;28;20595;-70
2023/04/16 11:03:41;;;;;;;20.92;13.68;;;13.70;99.90;;;;;;5096611;28;20040;-71
2023/04/16 11:06:11;;;;;;;21.25;15.35;;;13.70;99.90;;;;;;5108950;28;20042;-70
2023/04/16 11:08:39;;;;;;;24.17;14.70;;;13.90;99.90;;;;;;5083434;28;20038;-70
2023/04/16 11:11:05;;;;;;;20.30;13.70;;;13.90;99.90;;;;;;5110057;27;20118;-70
2023/04/16 11:13:31;;;;;;;21.30;14.05;;;13.90;99.90;;;;;;5111690;28;20044;-70
2023/04/16 11:15:57;;;;;;;20.80;14.10;;;14.00;99.90;;;;;;5098819;28;20525;-71
2023/04/16 11:18:23;;;;;;;21.08;15.05;;;14.00;99.90;;;;;;5125398;27;20079;-70
2023/04/16 11:20:50;;;;;;;21.85;14.38;;;14.00;99.90;;;;;;5098844;28;20545;-70
2023/04/16 11:23:16;;;;;;;21.65;14.88;;;14.00;99.90;;;;;;5096366;28;20074;-71
2023/04/16 11:25:41;;;;;;;22.48;13.98;;;14.00;99.90;;;;;;5103805;28;20432;-71
2023/04/16 11:28:07;;;;;;;21.15;13.75;;;14.00;99.90;;;;;;5115043;27;20064;-70
2023/04/16 11:30:37;;;;;;;21.80;14.52;;;14.00;99.90;;;;;;5092813;28;20036;-70
2023/04/16 11:33:10;;;;;;;22.20;13.38;;;14.10;99.90;;;;;;5106510;28;20053;-70
2023/04/16 11:35:40;;;;;;;20.90;13.65;;;14.10;99.90;;;;;;5111851;28;20063;-70
2023/04/16 11:38:06;;;;;;;19.42;12.35;;;14.20;99.90;;;;;;5112524;28;20429;-70
2023/04/16 11:40:32;;;;;;;20.58;12.27;;;14.00;99.90;;;;;;5087118;28;20089;-71
2023/04/16 11:43:15;;;;;;;23.20;12.95;;;14.00;99.90;;;;;;5097119;28;20032;-70
2023/04/16 11:45:58;;;;;;;26.52;13.95;;;14.00;99.90;;;;;;5110346;28;20035;-70
2023/04/16 11:48:25;;;;;;;22.02;13.60;;;14.00;99.90;;;;;;5098856;28;20074;-71
2023/04/16 11:50:58;;;;;;;26.23;13.88;;;14.00;99.90;;;;;;5120794;27;20129;-71
2023/04/16 11:53:24;;;;;;;24.83;14.85;;;14.10;99.90;;;;;;5098858;28;20056;-70
2023/04/16 11:55:49;;;;;;;24.50;13.27;;;14.20;99.90;;;;;;5093145;28;20062;-70
2023/04/16 11:58:15;;;;;;;24.10;14.18;;;14.20;99.90;;;;;;5092379;28;20040;-70
2023/04/16 12:00:41;;;;;;;27.17;14.48;;;14.10;99.90;;;;;;5092345;28;20044;-70
2023/04/16 12:03:07;;;;;;;21.10;13.55;;;14.10;99.90;;;;;;5102234;28;20066;-70
2023/04/16 12:05:37;;;;;;;24.45;12.63;;;14.10;99.90;;;;;;5084129;28;20074;-70
2023/04/16 12:08:05;;;;;;;26.63;13.85;;;14.10;99.90;;;;;;5109592;28;20407;-70
2023/04/16 12:10:37;;;;;;;23.90;13.25;;;14.10;99.90;;;;;;5075434;28;20456;-71
2023/04/16 12:13:16;;;;;;;25.00;15.63;;;14.20;99.90;;;;;;5111405;27;20032;-71
2023/04/16 12:15:45;;;;;;;22.20;13.82;;;14.20;99.90;;;;;;5072906;28;20286;-70
2023/04/16 12:18:11;;;;;;;23.25;13.52;;;14.20;99.90;;;;;;5094163;28;20074;-71
2023/04/16 12:20:40;;;;;;;23.20;14.27;;;14.30;99.90;;;;;;5104480;28;20132;-71
2023/04/16 12:23:07;;;;;;;23.30;13.60;;;14.40;99.90;;;;;;5108313;27;20059;-71
2023/04/16 12:25:33;;;;;;;27.20;14.52;;;14.40;99.90;;;;;;5098462;28;20115;-71
2023/04/16 12:27:58;;;;;;;21.70;14.63;;;14.40;99.90;;;;;;5125060;27;20114;-71
2023/04/16 12:30:25;;;;;;;23.33;15.27;;;14.30;99.90;;;;;;5100549;28;20044;-71